This is the latest recevied weather packets stored in our database for station/object DL8BGD. If no packets are shown the sender has not sent any weather packets the latest 10 day(s).
| Time | Temp. | Humidity | Pressure | Rain* | Wind** | Luminosity | Snow |
|---|---|---|---|---|---|---|---|
| 1777917046 | 20.56° C | 48% | 1014.2 hPa | 0 mm | - | - | - |
| 1777915845 | 21.11° C | 48% | 1014.2 hPa | 0 mm | - | - | - |
| 1777912243 | 22.78° C | 37% | 1014.1 hPa | 0 mm | - | - | - |
| 1777909241 | 23.89° C | 33% | 1013.8 hPa | 0 mm | - | - | - |
| 1777905639 | 25° C | 27% | 1013.9 hPa | 0 mm | - | - | - |
| 1777903838 | 25° C | 24% | 1014.1 hPa | 0 mm | - | - | - |
| 1777902094 | 25° C | 24% | 1014.2 hPa | 0 mm | - | - | - |
| 1777902037 | 25° C | 24% | 1014.2 hPa | 0 mm | - | - | - |
| 1777897834 | 25° C | 26% | 1015.2 hPa | 0 mm | - | - | - |
| 1777897235 | 25° C | 26% | 1015.4 hPa | 0 mm | - | - | - |
| 1777896633 | 24.44° C | 28% | 1015.6 hPa | 0 mm | - | - | - |
| 1777896033 | 23.89° C | 30% | 1015.7 hPa | 0 mm | - | - | - |
| 1777895433 | 24.44° C | 28% | 1015.8 hPa | 0 mm | - | - | - |
| 1777894832 | 23.89° C | 30% | 1016 hPa | 0 mm | - | - | - |
| 1777894232 | 23.89° C | 31% | 1016.3 hPa | 0 mm | - | - | - |
| 1777893631 | 23.33° C | 31% | 1016.4 hPa | 0 mm | - | - | - |
| 1777893031 | 23.89° C | 28% | 1016.5 hPa | 0 mm | - | - | - |
| 1777892430 | 23.89° C | 30% | 1016.6 hPa | 0 mm | - | - | - |
| 1777836858 | 16.11° C | 51% | 1016.3 hPa | 0 mm | - | - | - |
| 1777835057 | 17.22° C | 50% | 1016.1 hPa | 0 mm | - | - | - |
| 1777828449 | 22.22° C | 35% | 1015.1 hPa | 0 mm | - | - | - |
| 1777826646 | 24.44° C | 27% | 1014.8 hPa | 0 mm | - | - | - |
| 1777821843 | 26.67° C | 20% | 1014.5 hPa | 0 mm | - | - | - |
| 1777788195 | 14.44° C | 49% | 1020.5 hPa | 0 mm | - | - | - |
| 1777787594 | 12.78° C | 57% | 1020.6 hPa | 0 mm | - | - | - |
* Rain since midnight (hover to see other rain measurements)
** Current wind speed in m/s (hover to see current wind gust speed)